createdAt,value
2022-08-08T00:03:33.535Z,39.9
2022-08-08T00:18:18.990Z,39.5
2022-08-08T00:33:25.582Z,39.7
2022-08-08T00:48:33.744Z,39.9
2022-08-08T01:04:04.415Z,40.1
2022-08-08T01:18:54.667Z,40
2022-08-08T01:33:33.823Z,40
2022-08-08T01:48:33.061Z,39.9
2022-08-08T02:03:59.158Z,40
2022-08-08T02:18:25.862Z,40.1
2022-08-08T02:34:14.952Z,40.1
2022-08-08T02:48:28.546Z,40.1
2022-08-08T03:03:08.950Z,40.3
2022-08-08T03:18:09.159Z,39.8
2022-08-08T03:33:58.946Z,39.5
2022-08-08T03:48:07.459Z,39.9
2022-08-08T04:03:15.721Z,39.8
2022-08-08T04:18:18.660Z,40.4
2022-08-08T04:33:11.001Z,40.3
2022-08-08T04:48:16.443Z,40.2
2022-08-08T05:03:13.290Z,40.5
2022-08-08T05:18:12.900Z,40.5
2022-08-08T05:33:18.842Z,40.1
2022-08-08T05:48:15.545Z,40.8
2022-08-08T06:03:30.439Z,40.1
2022-08-08T06:18:22.707Z,40.8
2022-08-08T06:34:25.444Z,40.9
2022-08-08T06:48:18.705Z,40.6
2022-08-08T07:04:45.286Z,40.6
2022-08-08T07:18:42.718Z,40.2
2022-08-08T07:33:23.194Z,40.9
2022-08-08T07:48:24.209Z,40.9
2022-08-08T08:03:29.542Z,46.2
2022-08-08T08:18:36.340Z,47
2022-08-08T08:33:26.355Z,48.1
2022-08-08T08:48:32.323Z,46.7
2022-08-08T09:03:06.589Z,48.4
2022-08-08T09:18:07.260Z,48.3
2022-08-08T09:34:31.840Z,48.2
2022-08-08T09:48:29.141Z,49.3
2022-08-08T10:03:09.390Z,49.1
2022-08-08T10:18:25.650Z,48.6
2022-08-08T10:33:12.734Z,45.9
2022-08-08T10:48:13.422Z,45.8
2022-08-08T11:03:16.318Z,47.7
2022-08-08T11:18:17.407Z,45.2
2022-08-08T11:33:16.758Z,44.7
2022-08-08T11:48:22.296Z,47.2
2022-08-08T12:03:22.673Z,46.9
2022-08-08T12:18:24.358Z,45.5
2022-08-08T12:33:21.805Z,46.8
2022-08-08T12:48:39.262Z,48.3
2022-08-08T13:03:22.160Z,47.2
2022-08-08T13:18:29.845Z,48
2022-08-08T13:33:23.912Z,45.5
2022-08-08T13:48:27.663Z,45.4
2022-08-08T14:03:55.457Z,44.5
2022-08-08T14:18:53.993Z,46
2022-08-08T14:33:38.216Z,41.3
2022-08-08T14:48:41.032Z,49.4
2022-08-08T15:03:17.173Z,47.4
2022-08-08T15:18:11.988Z,47.6
2022-08-08T15:33:35.247Z,45.9
2022-08-08T15:48:18.284Z,49.5
2022-08-08T16:03:11.710Z,51.8
2022-08-08T16:18:12.951Z,49.2
2022-08-08T16:33:12.483Z,44.1
2022-08-08T16:48:14.127Z,41.2
2022-08-08T17:03:15.123Z,40.2
2022-08-08T17:18:16.890Z,40.5
2022-08-08T17:35:52.536Z,40.9
2022-08-08T17:48:31.805Z,40.9
2022-08-08T18:03:24.906Z,40.6
2022-08-08T18:18:43.064Z,40.7
2022-08-08T18:34:26.139Z,40.5
2022-08-08T18:48:27.165Z,40.2
2022-08-08T19:03:21.312Z,40
2022-08-08T19:18:51.911Z,40.1
2022-08-08T19:33:26.094Z,39.9
2022-08-08T19:48:32.172Z,40.1
2022-08-08T20:04:03.775Z,40.4
2022-08-08T20:18:54.067Z,40.3
2022-08-08T20:34:31.778Z,39.9
2022-08-08T20:48:29.014Z,40.5
2022-08-08T21:03:06.623Z,40.4
2022-08-08T21:18:07.454Z,40
2022-08-08T21:33:13.078Z,40.3
2022-08-08T21:48:30.235Z,40.4
2022-08-08T22:03:15.345Z,40.5
2022-08-08T22:18:14.514Z,40.3
2022-08-08T22:34:15.457Z,40.2
2022-08-08T22:48:17.609Z,40.3
2022-08-08T23:03:15.332Z,40
2022-08-08T23:18:14.569Z,40
2022-08-08T23:34:16.103Z,40
2022-08-08T23:49:15.083Z,39.9
